Pagina principale
METAR-TAF:

METAR-TAF

Aeroporti :

Cannes, Francia

latitudine: 43-33N, longitudine: 006-57E, altezza: 3 m

Osservazione

Il bollettino è stato emesso 28 minuti fa, alle 11:30 UTC
Vento 4 kt da sud/sud-est, variando fra est e sud/sud-ovest
Temperature 9°C
Umidità 37%
Pressione 1033 hPa
Visibilità 10 km o più
nessuna nube inferiore a 1500 m e nessun cumulonembo

METAR: LFMD 091130Z AUTO 16004KT 080V200 CAVOK 09/M05 Q1033 NOSIG

Ora: 12:58 (11:58 UTC)

Previsione

Il bollettino è stato emesso 3 ore e 58 minuti fa, alle 08:00 UTC
Previsione valida dal 09 alle 09 UTC al 10 alle 09 UTC
Vento 4 kt da nord
Visibilità 10 km o più
nessuna nube inferiore a 1500 m e nessun cumulonembo
Evoluzione graduale
dal 09 alle 13 UTC al 09 alle 15 UTC
Vento 10 kt da est
Evoluzione graduale
dal 09 alle 20 UTC al 09 alle 22 UTC
Vento 5 kt da nord

TAF: LFMD 090800Z 0909/1009 36004KT CAVOK BECMG 0913/0915 10010KT BECMG 0920/0922 36005KT

Osservazioni e previsioni meteorologiche di più di 4000 aeroporti (messaggi METAR e TAF).

Le stazioni disponibili sono rappresentate dai dischi gialli e rossi sulla carta.

Puntare il mouse per vedere il nome della stazione.

Clicca sopra per visualizzare le osservazioni e previsioni meteorologiche.

Per cambiare la mappa : fare clic sui pulsanti verdi con una croce nera per ingrandire, il pulsante verde con un trattino per diminuire, o sulla freccia verde per le mappe adiacenti.


METAR-TAF: